6°C
Woerden, The Nederlands
Taal:  Nederlands
Updated27/03/2019 02:15 
 
Station Historical Data
Daily Summary for January 14, 2019 Units:  Metric    English   Both
Next Day »
Daily Weekly Monthly Yearly Custom
  High: Low: Average:
Temperature: 8.3 °C 2.4 °C 5.3 °C
Dew Point: 5.4 °C 0.1 °C 2.8 °C
Humidity: 91% 78% 84%
Wind Speed: 50.0km/h 0.0km/h 19.8km/h
Wind Gust: 36.8km/h - -
Wind- - WNW
Pressure: 1019.7 hPa 1004.8 hPa -
Precipitation: 4.6 mm    
Historical Graphs
 
 
Tabular Data for January 14, 2019
Time Temperature Dew Point Pressure Wind Wind Speed Wind Gust Humidity Rainfall Rate (Hourly) solar Conditions
00:04 8.0 °C 5.3 °C 1004.9 hPa WNW 29.6 km/h 20.8 km/h 83% 0.0 mm 0.00 W/m2 RA
00:09 8.1 °C 5.3 °C 1004.8 hPa NW 35.2 km/h 19.8 km/h 83% 0.0 mm 0.00 W/m2 RA
00:14 8.1 °C 5.3 °C 1005.0 hPa WNW 25.9 km/h 22.0 km/h 83% 0.0 mm 0.00 W/m2 CLR
00:19 8.1 °C 5.4 °C 1005.0 hPa WNW 27.8 km/h 18.8 km/h 83% 0.0 mm 0.00 W/m2 CLR
00:24 8.1 °C 5.3 °C 1005.1 hPa WNW 22.2 km/h 18.0 km/h 83% 0.0 mm 0.00 W/m2 CLR
00:29 8.1 °C 5.4 °C 1005.3 hPa NW 31.5 km/h 19.1 km/h 83% 0.0 mm 0.00 W/m2 CLR
00:34 8.2 °C 5.4 °C 1005.4 hPa WNW 31.5 km/h 24.0 km/h 83% 0.0 mm 0.00 W/m2 CLR
00:39 8.2 °C 5.3 °C 1005.4 hPa WNW 33.3 km/h 23.0 km/h 82% 0.0 mm 0.00 W/m2 CLR
00:44 8.2 °C 5.3 °C 1005.3 hPa WNW 31.5 km/h 21.4 km/h 82% 0.0 mm 0.00 W/m2 CLR
00:49 8.2 °C 5.3 °C 1005.5 hPa NW 37.0 km/h 24.3 km/h 82% 0.0 mm 0.00 W/m2 CLR
00:54 8.3 °C 5.4 °C 1005.6 hPa WNW 35.2 km/h 23.5 km/h 82% 0.0 mm 0.00 W/m2 CLR
00:59 8.3 °C 5.4 °C 1005.6 hPa NW 31.5 km/h 23.7 km/h 82% 0.0 mm 0.00 W/m2 CLR
01:04 8.3 °C 5.2 °C 1005.6 hPa NW 48.1 km/h 23.5 km/h 81% 0.0 mm 0.00 W/m2 CLR
01:09 8.3 °C 5.4 °C 1005.6 hPa NW 31.5 km/h 21.7 km/h 82% 0.0 mm 0.00 W/m2 CLR
01:14 8.3 °C 5.4 °C 1005.6 hPa NW 40.7 km/h 33.8 km/h 82% 0.0 mm 0.00 W/m2 CLR
01:19 8.2 °C 5.3 °C 1005.6 hPa NW 29.6 km/h 25.3 km/h 82% 0.0 mm 0.00 W/m2 CLR
01:24 8.2 °C 5.3 °C 1005.7 hPa WNW 31.5 km/h 28.0 km/h 82% 0.0 mm 0.00 W/m2 CLR
01:29 8.2 °C 5.2 °C 1005.6 hPa NW 50.0 km/h 29.0 km/h 81% 0.0 mm 0.00 W/m2 CLR
01:34 8.3 °C 5.2 °C 1005.7 hPa WNW 31.5 km/h 25.6 km/h 81% 0.0 mm 0.00 W/m2 CLR
01:39 8.3 °C 5.2 °C 1005.8 hPa NW 42.6 km/h 26.1 km/h 81% 0.0 mm 0.00 W/m2 CLR
01:44 8.2 °C 5.2 °C 1005.9 hPa WNW 29.0 km/h 24.5 km/h 81% 0.0 mm 0.00 W/m2 CLR
01:49 8.2 °C 5.3 °C 1005.9 hPa WNW 29.6 km/h 22.2 km/h 82% 0.0 mm 0.00 W/m2 CLR
01:54 8.2 °C 5.3 °C 1006.0 hPa WNW 33.3 km/h 25.9 km/h 82% 0.0 mm 0.00 W/m2 CLR
01:59 8.2 °C 5.1 °C 1006.0 hPa NW 31.5 km/h 21.9 km/h 81% 0.0 mm 0.00 W/m2 CLR
02:04 8.1 °C 5.1 °C 1006.1 hPa WNW 33.3 km/h 24.5 km/h 81% 0.0 mm 0.00 W/m2 CLR
02:09 8.1 °C 5.0 °C 1006.2 hPa WNW 37.0 km/h 26.9 km/h 81% 0.0 mm 0.00 W/m2 CLR
02:14 8.0 °C 5.1 °C 1006.3 hPa West 38.9 km/h 27.2 km/h 82% 0.0 mm 0.00 W/m2 CLR
02:19 7.9 °C 5.1 °C 1006.5 hPa NW 35.2 km/h 24.3 km/h 82% 0.0 mm 0.00 W/m2 CLR
02:24 7.9 °C 5.1 °C 1006.5 hPa NW 46.3 km/h 26.9 km/h 82% 0.0 mm 0.00 W/m2 CLR
02:29 8.0 °C 5.1 °C 1006.5 hPa NW 31.5 km/h 22.8 km/h 82% 0.0 mm 0.00 W/m2 CLR
02:34 7.8 °C 4.9 °C 1006.5 hPa WNW 29.6 km/h 26.7 km/h 82% 0.0 mm 0.00 W/m2 CLR
02:39 7.8 °C 4.9 °C 1006.7 hPa NW 40.7 km/h 22.7 km/h 82% 0.0 mm 0.00 W/m2 CLR
02:44 7.8 °C 5.1 °C 1006.9 hPa NW 29.6 km/h 23.3 km/h 83% 0.0 mm 0.00 W/m2 CLR
02:49 7.8 °C 5.1 °C 1006.9 hPa WNW 31.5 km/h 23.2 km/h 83% 0.0 mm 0.00 W/m2 CLR
02:54 7.8 °C 5.1 °C 1007.1 hPa WNW 24.1 km/h 19.1 km/h 83% 0.0 mm 0.00 W/m2 CLR
02:59 7.8 °C 5.1 °C 1007.2 hPa NW 24.1 km/h 19.8 km/h 83% 0.0 mm 0.00 W/m2 CLR
03:04 7.9 °C 5.2 °C 1007.1 hPa WNW 25.9 km/h 18.3 km/h 83% 0.0 mm 0.00 W/m2 CLR
03:09 7.8 °C 5.1 °C 1007.2 hPa NNW 31.5 km/h 20.3 km/h 83% 0.0 mm 0.00 W/m2 CLR
03:14 7.8 °C 4.9 °C 1007.2 hPa NW 24.1 km/h 20.3 km/h 82% 0.0 mm 0.00 W/m2 CLR
03:19 7.7 °C 4.8 °C 1007.3 hPa NW 25.9 km/h 20.0 km/h 82% 0.0 mm 0.00 W/m2 CLR
03:24 7.8 °C 4.9 °C 1007.2 hPa WNW 31.5 km/h 23.7 km/h 82% 0.0 mm 0.00 W/m2 CLR
03:29 7.8 °C 5.1 °C 1007.6 hPa NW 31.5 km/h 23.2 km/h 83% 0.0 mm 0.00 W/m2 CLR
03:34 7.1 °C 4.4 °C 1007.6 hPa WNW 37.0 km/h 28.2 km/h 83% 0.3 mm 0.00 W/m2 RA
03:39 6.6 °C 4.2 °C 1007.6 hPa WNW 24.1 km/h 21.1 km/h 85% 0.5 mm 0.00 W/m2 RA
03:44 6.4 °C 4.2 °C 1007.5 hPa NW 31.5 km/h 22.7 km/h 86% 0.5 mm 0.00 W/m2 RA
03:49 6.3 °C 4.2 °C 1007.5 hPa NW 27.8 km/h 21.2 km/h 86% 0.5 mm 0.00 W/m2 RA
03:54 6.4 °C 4.2 °C 1007.7 hPa NW 25.9 km/h 19.0 km/h 86% 0.5 mm 0.00 W/m2
03:59 6.5 °C 4.3 °C 1007.6 hPa NW 29.6 km/h 18.5 km/h 86% 0.5 mm 0.00 W/m2 CLR
04:04 6.5 °C 4.3 °C 1007.7 hPa NW 25.9 km/h 18.2 km/h 86% 0.5 mm 0.00 W/m2 CLR
04:09 6.6 °C 4.4 °C 1007.8 hPa WNW 22.5 km/h 18.8 km/h 86% 0.5 mm 0.00 W/m2 CLR
04:14 6.4 °C 4.3 °C 1007.9 hPa WNW 20.4 km/h 17.2 km/h 86% 0.5 mm 0.00 W/m2 CLR
04:19 6.4 °C 4.1 °C 1007.9 hPa NW 22.2 km/h 15.4 km/h 85% 0.5 mm 0.00 W/m2 CLR
04:24 6.4 °C 4.1 °C 1007.8 hPa WNW 24.1 km/h 15.8 km/h 85% 0.5 mm 0.00 W/m2 CLR
04:29 6.4 °C 4.1 °C 1007.9 hPa WNW 27.8 km/h 17.5 km/h 85% 0.5 mm 0.00 W/m2 CLR
04:34 6.5 °C 4.2 °C 1007.9 hPa NW 31.5 km/h 19.6 km/h 85% 0.5 mm 0.00 W/m2 CLR
04:39 6.6 °C 4.2 °C 1007.9 hPa WNW 25.9 km/h 19.6 km/h 85% 0.3 mm 0.00 W/m2 CLR
04:44 6.6 °C 4.2 °C 1007.9 hPa NW 22.2 km/h 16.7 km/h 85% 0.0 mm 0.00 W/m2 CLR
04:49 6.6 °C 4.4 °C 1008.1 hPa NW 18.5 km/h 17.9 km/h 86% 0.0 mm 0.00 W/m2 CLR
04:54 6.4 °C 4.3 °C 1008.2 hPa NW 22.2 km/h 14.6 km/h 86% 0.0 mm 0.00 W/m2 CLR
04:59 6.4 °C 4.3 °C 1008.2 hPa WNW 18.5 km/h 14.6 km/h 86% 0.0 mm 0.00 W/m2 CLR
05:04 6.4 °C 4.3 °C 1008.2 hPa WNW 16.7 km/h 12.4 km/h 86% 0.0 mm 0.00 W/m2 CLR
05:09 6.3 °C 4.2 °C 1008.2 hPa WNW 16.7 km/h 11.3 km/h 86% 0.0 mm 0.00 W/m2 CLR
05:14 6.3 °C 4.1 °C 1008.3 hPa NW 13.0 km/h 7.6 km/h 86% 0.0 mm 0.00 W/m2 CLR
05:19 6.2 °C 4.1 °C 1008.3 hPa WNW 13.0 km/h 7.1 km/h 86% 0.0 mm 0.00 W/m2 CLR
05:24 6.2 °C 4.0 °C 1008.5 hPa NW 14.5 km/h 8.2 km/h 86% 0.0 mm 0.00 W/m2 CLR
05:29 6.2 °C 4.1 °C 1008.4 hPa West 18.5 km/h 16.1 km/h 86% 0.0 mm 0.00 W/m2 CLR
05:34 6.4 °C 4.3 °C 1008.6 hPa NW 22.2 km/h 15.0 km/h 86% 0.0 mm 0.00 W/m2 CLR
05:39 6.5 °C 4.3 °C 1008.6 hPa WNW 20.4 km/h 15.6 km/h 86% 0.0 mm 0.00 W/m2 CLR
05:44 6.6 °C 4.4 °C 1008.6 hPa NW 18.5 km/h 13.2 km/h 86% 0.0 mm 0.00 W/m2 CLR
05:49 6.6 °C 4.4 °C 1008.6 hPa WNW 14.8 km/h 11.1 km/h 86% 0.0 mm 0.00 W/m2 CLR
05:54 6.6 °C 4.4 °C 1008.6 hPa WNW 18.5 km/h 12.1 km/h 86% 0.0 mm 0.00 W/m2 CLR
05:59 6.6 °C 4.4 °C 1008.7 hPa WNW 18.5 km/h 9.0 km/h 86% 0.0 mm 0.00 W/m2 CLR
06:04 6.6 °C 4.4 °C 1008.7 hPa WNW 18.5 km/h 14.2 km/h 86% 0.0 mm 0.00 W/m2 CLR
06:09 6.7 °C 4.6 °C 1009.0 hPa West 27.4 km/h 20.3 km/h 86% 0.0 mm 0.00 W/m2 CLR
06:14 6.7 °C 4.6 °C 1009.0 hPa NW 35.2 km/h 20.9 km/h 86% 0.5 mm 0.00 W/m2 RA
06:19 6.5 °C 4.3 °C 1008.9 hPa NNW 35.2 km/h 25.9 km/h 86% 0.8 mm 0.00 W/m2 RA
06:24 6.4 °C 4.2 °C 1009.0 hPa NW 31.5 km/h 22.8 km/h 86% 0.8 mm 0.00 W/m2 RA
06:29 6.3 °C 4.2 °C 1008.9 hPa NW 24.1 km/h 18.2 km/h 86% 0.8 mm 0.00 W/m2
06:34 6.3 °C 4.1 °C 1009.0 hPa NW 22.2 km/h 17.7 km/h 86% 0.8 mm 0.00 W/m2 CLR
06:39 6.3 °C 4.1 °C 1009.2 hPa NW 19.3 km/h 16.7 km/h 86% 0.8 mm 0.00 W/m2 CLR
06:44 6.3 °C 4.1 °C 1009.2 hPa WNW 22.5 km/h 16.6 km/h 86% 0.8 mm 0.00 W/m2 CLR
06:49 6.4 °C 4.4 °C 1009.5 hPa NW 25.9 km/h 19.0 km/h 87% 0.8 mm 0.00 W/m2 CLR
06:54 6.4 °C 4.4 °C 1009.6 hPa NW 24.1 km/h 20.9 km/h 87% 0.8 mm 0.00 W/m2 CLR
06:59 6.4 °C 4.4 °C 1009.5 hPa WNW 22.2 km/h 16.9 km/h 87% 0.8 mm 0.00 W/m2 CLR
07:04 6.3 °C 4.3 °C 1009.5 hPa NW 24.1 km/h 15.6 km/h 87% 0.8 mm 0.00 W/m2 CLR
07:09 6.3 °C 4.3 °C 1009.6 hPa NW 16.7 km/h 14.5 km/h 87% 0.8 mm 0.00 W/m2 CLR
07:14 6.2 °C 4.2 °C 1009.8 hPa NW 16.7 km/h 11.9 km/h 87% 0.5 mm 0.00 W/m2 CLR
07:19 6.2 °C 4.2 °C 1009.7 hPa WNW 24.1 km/h 16.7 km/h 87% 0.0 mm 0.00 W/m2 CLR
07:24 6.2 °C 4.2 °C 1009.7 hPa NW 14.8 km/h 13.0 km/h 87% 0.0 mm 0.00 W/m2 CLR
07:29 6.2 °C 4.2 °C 1009.8 hPa NW 20.4 km/h 12.9 km/h 87% 0.0 mm 0.00 W/m2 CLR
07:34 6.1 °C 4.1 °C 1009.9 hPa NNW 18.5 km/h 12.4 km/h 87% 0.0 mm 0.00 W/m2 CLR
07:39 5.9 °C 3.9 °C 1010.1 hPa NW 18.5 km/h 10.8 km/h 87% 0.0 mm 0.00 W/m2 CLR
07:44 5.7 °C 3.7 °C 1010.2 hPa NW 14.8 km/h 8.8 km/h 87% 0.0 mm 0.00 W/m2 CLR
07:49 5.5 °C 3.5 °C 1010.5 hPa NW 16.7 km/h 12.2 km/h 87% 0.0 mm 0.00 W/m2 CLR
07:54 5.4 °C 3.4 °C 1010.5 hPa NW 17.7 km/h 11.7 km/h 87% 0.0 mm 0.00 W/m2 CLR
07:59 5.5 °C 3.5 °C 1010.6 hPa North 22.2 km/h 11.4 km/h 87% 0.0 mm 0.00 W/m2 CLR
08:04 5.5 °C 3.5 °C 1010.7 hPa North 18.5 km/h 7.2 km/h 87% 0.0 mm 0.00 W/m2 CLR
08:09 5.3 °C 3.3 °C 1010.8 hPa NNW 13.0 km/h 8.4 km/h 87% 0.0 mm 0.00 W/m2 CLR
08:14 5.2 °C 3.2 °C 1010.9 hPa NNW 6.4 km/h 5.0 km/h 87% 0.0 mm 0.00 W/m2 CLR
08:19 5.1 °C 3.1 °C 1011.1 hPa NNW 13.0 km/h 6.4 km/h 87% 0.0 mm 0.00 W/m2 CLR
08:24 4.9 °C 2.9 °C 1011.3 hPa NNW 14.8 km/h 6.9 km/h 87% 0.0 mm 0.00 W/m2 CLR
08:29 4.8 °C 2.8 °C 1011.5 hPa NW 9.3 km/h 6.4 km/h 87% 0.0 mm 0.00 W/m2 CLR
08:34 4.7 °C 2.7 °C 1011.6 hPa NW 9.3 km/h 4.8 km/h 87% 0.0 mm 0.00 W/m2 CLR
08:39 4.5 °C 2.5 °C 1011.8 hPa NW 5.6 km/h 4.8 km/h 87% 0.0 mm 0.00 W/m2 CLR
08:44 4.4 °C 2.4 °C 1011.8 hPa NW 6.4 km/h 6.0 km/h 87% 0.0 mm 0.00 W/m2 OVC
08:49 4.5 °C 2.7 °C 1012.1 hPa NW 13.0 km/h 7.2 km/h 88% 0.0 mm 0.00 W/m2 OVC
08:54 4.6 °C 2.6 °C 1012.2 hPa NW 13.0 km/h 6.6 km/h 87% 0.0 mm 0.00 W/m2 OVC
08:59 4.7 °C 2.8 °C 1012.2 hPa NW 25.9 km/h 20.9 km/h 88% 1.3 mm 0.00 W/m2 RA
09:04 4.8 °C 3.0 °C 1012.3 hPa NW 13.0 km/h 10.3 km/h 88% 1.3 mm 12.00 W/m2 RA
09:09 4.8 °C 3.0 °C 1012.4 hPa WNW 14.8 km/h 9.2 km/h 88% 1.5 mm 11.00 W/m2 RA
09:14 4.8 °C 3.0 °C 1012.7 hPa North 13.0 km/h 7.7 km/h 88% 1.5 mm 5.00 W/m2 RA
09:19 4.8 °C 3.0 °C 1012.7 hPa NNW 16.7 km/h 7.9 km/h 88% 2.0 mm 7.00 W/m2 RA
09:24 4.9 °C 3.1 °C 1012.9 hPa WNW 18.5 km/h 15.3 km/h 88% 2.0 mm 12.00 W/m2 RA
09:29 4.8 °C 2.8 °C 1012.9 hPa NW 20.9 km/h 15.1 km/h 87% 2.0 mm 16.00 W/m2
09:34 4.8 °C 2.6 °C 1012.9 hPa NW 27.8 km/h 20.4 km/h 86% 2.3 mm 19.00 W/m2 RA
09:39 4.9 °C 2.6 °C 1012.9 hPa NW 27.8 km/h 17.9 km/h 85% 2.3 mm 21.00 W/m2 RA
09:44 4.9 °C 2.6 °C 1013.0 hPa NW 16.7 km/h 10.6 km/h 85% 2.3 mm 40.00 W/m2
09:49 4.8 °C 2.5 °C 1012.9 hPa NW 14.8 km/h 11.4 km/h 85% 2.3 mm 60.00 W/m2 OVC
09:54 4.8 °C 2.5 °C 1013.0 hPa NW 9.3 km/h 8.8 km/h 85% 2.3 mm 67.00 W/m2 BKN
09:59 4.9 °C 2.7 °C 1013.1 hPa NW 13.0 km/h 9.3 km/h 86% 1.0 mm 79.00 W/m2 FEW
10:04 4.9 °C 2.8 °C 1013.2 hPa WNW 13.0 km/h 9.2 km/h 86% 1.0 mm 95.00 W/m2 CLR
10:09 5.0 °C 3.7 °C 1013.2 hPa NW 13.0 km/h 8.7 km/h 91% 0.8 mm 102.00 W/m2 CLR
10:14 5.0 °C 2.8 °C 1013.3 hPa WNW 11.1 km/h 6.3 km/h 86% 0.8 mm 113.00 W/m2 CLR
10:19 5.1 °C 2.9 °C 1013.3 hPa NW 14.8 km/h 9.2 km/h 86% 0.3 mm 156.00 W/m2 CLR
10:24 5.3 °C 3.2 °C 1013.4 hPa WNW 16.1 km/h 10.9 km/h 86% 0.3 mm 95.00 W/m2 CLR
10:29 5.6 °C 3.2 °C 1013.5 hPa WNW 18.5 km/h 14.2 km/h 85% 0.3 mm 35.00 W/m2 CLR
10:34 5.6 °C 3.3 °C 1013.8 hPa NW 29.6 km/h 19.0 km/h 85% 0.0 mm 46.00 W/m2 CLR
10:39 5.4 °C 3.1 °C 1013.8 hPa NW 20.4 km/h 10.3 km/h 85% 0.0 mm 54.00 W/m2 FEW
10:44 5.3 °C 3.0 °C 1013.7 hPa NW 16.1 km/h 8.7 km/h 85% 0.0 mm 53.00 W/m2 CLR
10:49 5.3 °C 2.9 °C 1013.7 hPa NW 16.1 km/h 10.5 km/h 85% 0.0 mm 165.00 W/m2 CLR
10:54 5.5 °C 3.2 °C 1013.7 hPa NNW 20.4 km/h 14.2 km/h 85% 0.0 mm 98.00 W/m2 CLR
10:59 5.7 °C 3.4 °C 1013.8 hPa NW 18.5 km/h 14.8 km/h 85% 0.0 mm 248.00 W/m2 CLR
11:04 5.9 °C 3.4 °C 1014.1 hPa NW 25.7 km/h 21.1 km/h 84% 0.0 mm 118.00 W/m2 CLR
11:09 5.4 °C 2.9 °C 1014.0 hPa NNW 29.6 km/h 17.7 km/h 84% 0.3 mm 70.00 W/m2 RA
11:14 5.2 °C 2.7 °C 1014.1 hPa NNW 22.2 km/h 15.3 km/h 84% 0.3 mm 77.00 W/m2 RA
11:19 5.0 °C 2.5 °C 1014.2 hPa NW 18.5 km/h 14.6 km/h 84% 0.3 mm 100.00 W/m2 FEW
11:24 5.1 °C 2.6 °C 1014.3 hPa WNW 18.5 km/h 15.0 km/h 84% 0.3 mm 97.00 W/m2 CLR
11:29 5.1 °C 2.6 °C 1014.3 hPa NW 20.4 km/h 14.3 km/h 84% 0.3 mm 79.00 W/m2 FEW
11:34 5.2 °C 2.7 °C 1014.3 hPa NW 20.4 km/h 13.2 km/h 84% 0.3 mm 95.00 W/m2 SCT
11:39 5.2 °C 2.7 °C 1014.4 hPa WNW 14.8 km/h 11.3 km/h 84% 0.3 mm 121.00 W/m2 SCT
11:44 5.3 °C 2.8 °C 1014.4 hPa WNW 14.5 km/h 10.8 km/h 84% 0.3 mm 211.00 W/m2 CLR
11:49 5.4 °C 2.9 °C 1014.4 hPa NW 14.8 km/h 12.7 km/h 84% 0.3 mm 174.00 W/m2 CLR
11:54 5.6 °C 3.1 °C 1014.4 hPa NW 20.4 km/h 13.2 km/h 84% 0.3 mm 102.00 W/m2 CLR
11:59 5.6 °C 3.1 °C 1014.5 hPa NW 13.0 km/h 10.5 km/h 84% 0.3 mm 137.00 W/m2 SCT
12:04 5.7 °C 3.2 °C 1014.6 hPa NW 18.5 km/h 14.0 km/h 84% 0.3 mm 262.00 W/m2 FEW
12:09 5.8 °C 3.3 °C 1014.6 hPa WNW 13.0 km/h 13.2 km/h 84% 0.0 mm 287.00 W/m2 CLR
12:14 6.1 °C 3.6 °C 1014.8 hPa NW 18.5 km/h 12.6 km/h 84% 0.0 mm 84.00 W/m2 CLR
12:19 6.3 °C 3.6 °C 1014.8 hPa NW 30.6 km/h 19.3 km/h 83% 0.0 mm 371.00 W/m2 CLR
12:24 6.5 °C 2.9 °C 1015.2 hPa North 48.1 km/h 36.8 km/h 78% 0.0 mm 211.00 W/m2 CLR
12:29 5.0 °C 2.3 °C 1015.1 hPa North 31.5 km/h 26.2 km/h 83% 0.3 mm 330.00 W/m2 RA
12:34 4.7 °C 2.4 °C 1015.1 hPa NW 20.4 km/h 16.3 km/h 85% 0.3 mm 156.00 W/m2 RA
12:39 4.7 °C 2.2 °C 1015.2 hPa NNW 25.9 km/h 19.3 km/h 84% 0.3 mm 142.00 W/m2 CLR
12:44 5.2 °C 2.6 °C 1015.4 hPa NW 25.9 km/h 22.2 km/h 83% 0.3 mm 146.00 W/m2 FEW
12:49 5.6 °C 2.7 °C 1015.4 hPa NW 31.5 km/h 20.4 km/h 82% 0.3 mm 155.00 W/m2 FEW
12:54 5.7 °C 2.9 °C 1015.3 hPa NW 22.2 km/h 16.4 km/h 82% 0.3 mm 165.00 W/m2 FEW
12:59 5.9 °C 3.1 °C 1015.5 hPa NW 29.6 km/h 18.0 km/h 82% 0.3 mm 163.00 W/m2 FEW
13:04 5.6 °C 2.7 °C 1015.6 hPa NW 37.0 km/h 26.7 km/h 82% 0.3 mm 56.00 W/m2 FEW
13:09 5.1 °C 2.4 °C 1015.5 hPa NW 22.2 km/h 20.9 km/h 83% 0.3 mm 46.00 W/m2 BKN
13:14 5.0 °C 2.5 °C 1015.4 hPa NW 22.2 km/h 16.3 km/h 84% 0.3 mm 181.00 W/m2 BKN
13:19 5.2 °C 2.7 °C 1015.2 hPa NW 16.7 km/h 12.9 km/h 84% 0.3 mm 200.00 W/m2 SCT
13:24 5.4 °C 2.9 °C 1015.3 hPa NW 20.9 km/h 17.4 km/h 84% 0.3 mm 160.00 W/m2 CLR
13:29 5.7 °C 3.0 °C 1015.3 hPa NW 19.3 km/h 15.6 km/h 83% 0.0 mm 265.00 W/m2 CLR
13:34 6.0 °C 3.2 °C 1015.3 hPa NW 22.5 km/h 18.2 km/h 82% 0.0 mm 323.00 W/m2 CLR
13:39 6.3 °C 3.3 °C 1015.5 hPa NW 24.1 km/h 19.8 km/h 81% 0.0 mm 246.00 W/m2 CLR
13:44 6.1 °C 2.6 °C 1015.7 hPa NW 44.4 km/h 26.5 km/h 78% 0.0 mm 44.00 W/m2 FEW
13:49 5.1 °C 2.2 °C 1015.7 hPa WNW 27.8 km/h 24.1 km/h 82% 0.3 mm 70.00 W/m2 RA
13:54 4.9 °C 1.9 °C 1015.5 hPa NW 33.3 km/h 26.5 km/h 81% 0.3 mm 107.00 W/m2 RA
13:59 5.2 °C 2.0 °C 1015.6 hPa WNW 27.8 km/h 21.2 km/h 80% 0.3 mm 294.00 W/m2 BKN
14:04 5.3 °C 2.3 °C 1015.6 hPa NW 27.8 km/h 20.8 km/h 81% 0.3 mm 272.00 W/m2 CLR
14:09 5.6 °C 2.6 °C 1015.7 hPa NNW 33.3 km/h 24.3 km/h 81% 0.3 mm 295.00 W/m2 CLR
14:14 5.6 °C 2.6 °C 1015.7 hPa NNW 24.1 km/h 14.6 km/h 81% 0.3 mm 123.00 W/m2 CLR
14:19 5.6 °C 2.6 °C 1015.7 hPa NNW 24.1 km/h 20.4 km/h 81% 0.3 mm 218.00 W/m2 FEW
14:24 5.6 °C 2.6 °C 1015.8 hPa NW 24.1 km/h 16.7 km/h 81% 0.3 mm 209.00 W/m2 FEW
14:29 5.8 °C 2.6 °C 1015.7 hPa NW 20.4 km/h 14.8 km/h 80% 0.3 mm 202.00 W/m2 CLR
14:34 5.9 °C 2.3 °C 1015.8 hPa NW 27.8 km/h 20.4 km/h 78% 0.3 mm 46.00 W/m2 CLR
14:39 5.8 °C 2.4 °C 1015.9 hPa NW 24.1 km/h 20.0 km/h 79% 0.3 mm 56.00 W/m2 SCT
14:44 5.7 °C 2.3 °C 1016.0 hPa NW 35.2 km/h 22.2 km/h 79% 0.3 mm 188.00 W/m2 BKN
14:49 5.7 °C 2.5 °C 1016.0 hPa WNW 27.8 km/h 21.7 km/h 80% 0.0 mm 174.00 W/m2 SCT
14:54 5.7 °C 2.5 °C 1016.1 hPa NW 24.1 km/h 16.7 km/h 80% 0.0 mm 97.00 W/m2 FEW
14:59 5.7 °C 2.3 °C 1016.1 hPa WNW 24.1 km/h 16.6 km/h 79% 0.0 mm 39.00 W/m2 SCT
15:04 5.6 °C 2.1 °C 1016.1 hPa NNW 22.2 km/h 16.9 km/h 78% 0.0 mm 84.00 W/m2 BKN
15:09 5.7 °C 2.1 °C 1016.2 hPa NW 20.4 km/h 15.9 km/h 78% 0.0 mm 125.00 W/m2 BKN
15:14 5.8 °C 2.4 °C 1016.4 hPa NNW 25.7 km/h 19.0 km/h 79% 0.0 mm 176.00 W/m2 SCT
15:19 5.6 °C 2.3 °C 1016.4 hPa NW 29.6 km/h 20.3 km/h 79% 0.0 mm 33.00 W/m2 SCT
15:24 5.4 °C 2.1 °C 1016.3 hPa WNW 31.5 km/h 20.9 km/h 79% 0.0 mm 35.00 W/m2 BKN
15:29 5.3 °C 2.3 °C 1016.5 hPa NW 22.2 km/h 14.3 km/h 81% 0.0 mm 28.00 W/m2 BKN
15:34 5.3 °C 2.3 °C 1016.7 hPa NW 27.8 km/h 17.7 km/h 81% 0.0 mm 33.00 W/m2 BKN
15:39 5.4 °C 2.4 °C 1016.9 hPa WNW 29.0 km/h 23.0 km/h 81% 0.0 mm 32.00 W/m2 BKN
15:44 4.7 °C 2.1 °C 1017.0 hPa North 29.6 km/h 21.9 km/h 83% 0.0 mm 169.00 W/m2 BKN
15:49 4.4 °C 2.0 °C 1016.9 hPa WNW 29.6 km/h 19.5 km/h 84% 0.0 mm 104.00 W/m2 SCT
15:54 4.5 °C 2.1 °C 1017.0 hPa NNW 22.2 km/h 19.0 km/h 84% 0.0 mm 39.00 W/m2 FEW
15:59 4.7 °C 2.0 °C 1017.2 hPa WNW 31.5 km/h 25.6 km/h 83% 0.3 mm 18.00 W/m2 RA
16:04 4.3 °C 1.8 °C 1017.3 hPa NW 31.5 km/h 21.9 km/h 84% 0.3 mm 21.00 W/m2 RA
16:09 4.2 °C 1.9 °C 1017.3 hPa WNW 22.2 km/h 18.5 km/h 85% 0.3 mm 37.00 W/m2 BKN
16:14 4.2 °C 1.9 °C 1017.2 hPa WNW 24.1 km/h 18.8 km/h 85% 0.3 mm 62.00 W/m2 SCT
16:19 4.3 °C 2.1 °C 1017.3 hPa WNW 24.1 km/h 16.6 km/h 85% 0.3 mm 37.00 W/m2 BKN
16:24 4.3 °C 2.1 °C 1017.3 hPa WNW 20.4 km/h 14.5 km/h 85% 0.3 mm 23.00 W/m2 BKN
16:29 4.2 °C 1.9 °C 1017.4 hPa WNW 18.5 km/h 15.4 km/h 85% 0.3 mm 16.00 W/m2 BKN
16:34 4.1 °C 1.8 °C 1017.3 hPa NW 16.7 km/h 13.4 km/h 85% 0.3 mm 11.00 W/m2 BKN
16:39 4.0 °C 1.7 °C 1017.4 hPa WNW 16.7 km/h 9.8 km/h 85% 0.3 mm 12.00 W/m2 BKN
16:44 3.9 °C 1.7 °C 1017.3 hPa WNW 16.7 km/h 10.6 km/h 85% 0.3 mm 7.00 W/m2 BKN
16:49 3.9 °C 1.6 °C 1017.3 hPa WNW 13.0 km/h 9.5 km/h 85% 0.3 mm 7.00 W/m2 BKN
16:54 3.9 °C 1.7 °C 1017.4 hPa NW 18.5 km/h 10.3 km/h 85% 0.3 mm 5.00 W/m2 BKN
16:59 3.9 °C 1.7 °C 1017.5 hPa NW 18.5 km/h 10.3 km/h 85% 0.0 mm 0.00 W/m2 BKN
17:04 3.9 °C 1.7 °C 1017.6 hPa NW 16.7 km/h 10.9 km/h 85% 0.0 mm 0.00 W/m2 BKN
17:09 4.1 °C 1.8 °C 1017.7 hPa NW 16.1 km/h 12.2 km/h 85% 0.0 mm 0.00 W/m2 BKN
17:14 4.2 °C 1.9 °C 1017.8 hPa WNW 25.9 km/h 21.2 km/h 85% 0.0 mm 0.00 W/m2 BKN
17:19 4.3 °C 1.9 °C 1017.9 hPa NW 25.9 km/h 20.1 km/h 84% 0.0 mm 0.00 W/m2 BKN
17:24 4.2 °C 1.8 °C 1017.9 hPa NW 18.5 km/h 12.2 km/h 84% 0.0 mm 0.00 W/m2 BKN
17:29 4.1 °C 1.8 °C 1017.8 hPa NW 14.5 km/h 7.9 km/h 85% 0.0 mm 0.00 W/m2 BKN
17:34 3.9 °C 1.6 °C 1017.7 hPa NW 13.0 km/h 7.6 km/h 85% 0.0 mm 0.00 W/m2 BKN
17:39 3.7 °C 1.4 °C 1017.8 hPa WNW 5.6 km/h 3.9 km/h 85% 0.0 mm 0.00 W/m2 BKN
17:44 3.6 °C 1.3 °C 1017.8 hPa WNW 5.6 km/h 4.3 km/h 85% 0.0 mm 0.00 W/m2 BKN
17:49 3.4 °C 1.3 °C 1017.9 hPa WNW 7.4 km/h 6.3 km/h 86% 0.0 mm 0.00 W/m2 BKN
17:54 3.3 °C 1.2 °C 1017.9 hPa WNW 6.4 km/h 4.0 km/h 86% 0.0 mm 0.00 W/m2 BKN
17:59 3.3 °C 1.2 °C 1017.9 hPa WNW 9.7 km/h 6.3 km/h 86% 0.0 mm 0.00 W/m2 BKN
18:04 3.3 °C 1.2 °C 1018.0 hPa WNW 9.3 km/h 5.1 km/h 86% 0.0 mm 0.00 W/m2 BKN
18:09 3.3 °C 1.2 °C 1018.0 hPa West 11.1 km/h 5.5 km/h 86% 0.0 mm 0.00 W/m2 BKN
18:14 3.2 °C 0.9 °C 1018.0 hPa WNW 9.3 km/h 5.3 km/h 85% 0.0 mm 0.00 W/m2 BKN
18:19 3.3 °C 1.0 °C 1018.3 hPa WNW 13.0 km/h 6.9 km/h 85% 0.0 mm 0.00 W/m2 BKN
18:24 3.3 °C 1.1 °C 1018.4 hPa NW 14.8 km/h 12.9 km/h 85% 0.0 mm 0.00 W/m2 BKN
18:29 3.3 °C 1.1 °C 1018.4 hPa NW 13.0 km/h 7.9 km/h 85% 0.0 mm 0.00 W/m2 BKN
18:34 3.2 °C 0.9 °C 1018.5 hPa WNW 14.8 km/h 8.8 km/h 85% 0.0 mm 0.00 W/m2 BKN
18:39 3.3 °C 1.0 °C 1018.4 hPa WNW 11.1 km/h 6.1 km/h 85% 0.0 mm 0.00 W/m2 BKN
18:44 3.3 °C 1.0 °C 1018.5 hPa WNW 7.4 km/h 5.3 km/h 85% 0.0 mm 0.00 W/m2 BKN
18:49 3.2 °C 0.9 °C 1018.5 hPa WNW 11.1 km/h 5.6 km/h 85% 0.0 mm 0.00 W/m2 BKN
18:54 3.2 °C 0.9 °C 1018.8 hPa WNW 11.1 km/h 5.5 km/h 85% 0.0 mm 0.00 W/m2 BKN
18:59 3.2 °C 0.9 °C 1018.8 hPa WNW 5.6 km/h 4.8 km/h 85% 0.0 mm 0.00 W/m2 BKN
19:04 3.2 °C 0.9 °C 1018.8 hPa WNW 5.6 km/h 4.2 km/h 85% 0.0 mm 0.00 W/m2 BKN
19:09 3.2 °C 0.9 °C 1018.8 hPa WNW 7.4 km/h 5.5 km/h 85% 0.0 mm 0.00 W/m2 BKN
19:14 3.3 °C 1.0 °C 1018.8 hPa West 11.3 km/h 9.3 km/h 85% 0.0 mm 0.00 W/m2 BKN
19:19 3.3 °C 1.0 °C 1018.8 hPa West 11.1 km/h 7.4 km/h 85% 0.0 mm 0.00 W/m2 BKN
19:24 3.4 °C 1.1 °C 1018.9 hPa West 9.3 km/h 6.9 km/h 85% 0.0 mm 0.00 W/m2 BKN
19:29 3.5 °C 1.2 °C 1018.9 hPa West 9.3 km/h 8.2 km/h 85% 0.0 mm 0.00 W/m2 BKN
19:34 3.6 °C 1.2 °C 1019.1 hPa West 9.3 km/h 6.9 km/h 84% 0.0 mm 0.00 W/m2 BKN
19:39 3.7 °C 1.3 °C 1019.1 hPa WNW 5.6 km/h 5.1 km/h 84% 0.0 mm 0.00 W/m2 BKN
19:44 3.8 °C 1.4 °C 1019.1 hPa NW 11.1 km/h 5.0 km/h 84% 0.0 mm 0.00 W/m2 BKN
19:49 3.8 °C 1.3 °C 1019.3 hPa NNW 7.4 km/h 7.2 km/h 84% 0.0 mm 0.00 W/m2 BKN
19:54 3.2 °C 0.8 °C 1019.4 hPa NW 19.3 km/h 14.0 km/h 84% 0.0 mm 0.00 W/m2 BKN
19:59 3.4 °C 1.1 °C 1019.5 hPa NW 20.4 km/h 16.9 km/h 85% 0.0 mm 0.00 W/m2 BKN
20:04 3.6 °C 1.3 °C 1019.2 hPa NW 14.8 km/h 11.7 km/h 85% 0.3 mm 0.00 W/m2 RA
20:09 3.7 °C 1.4 °C 1019.2 hPa NW 13.0 km/h 7.6 km/h 85% 0.3 mm 0.00 W/m2 RA
20:14 3.7 °C 1.4 °C 1019.2 hPa NW 13.0 km/h 6.9 km/h 85% 0.3 mm 0.00 W/m2 BKN
20:19 3.7 °C 1.4 °C 1019.2 hPa NW 16.1 km/h 9.7 km/h 85% 0.3 mm 0.00 W/m2 BKN
20:24 4.0 °C 1.4 °C 1019.3 hPa NW 24.1 km/h 17.7 km/h 83% 0.3 mm 0.00 W/m2 BKN
20:29 4.2 °C 1.4 °C 1019.2 hPa NW 31.5 km/h 18.3 km/h 82% 0.3 mm 0.00 W/m2 BKN
20:34 4.3 °C 1.3 °C 1019.2 hPa NW 29.6 km/h 20.1 km/h 81% 0.3 mm 0.00 W/m2 BKN
20:39 4.6 °C 1.6 °C 1019.3 hPa WNW 14.8 km/h 9.5 km/h 81% 0.3 mm 0.00 W/m2 BKN
20:44 4.4 °C 1.6 °C 1019.2 hPa WNW 14.8 km/h 7.2 km/h 82% 0.3 mm 0.00 W/m2 BKN
20:49 4.3 °C 1.6 °C 1019.2 hPa WNW 18.5 km/h 11.6 km/h 82% 0.3 mm 0.00 W/m2 BKN
20:54 4.4 °C 1.6 °C 1019.2 hPa WNW 13.0 km/h 7.9 km/h 82% 0.3 mm 0.00 W/m2 BKN
20:59 4.3 °C 1.6 °C 1019.3 hPa West 13.0 km/h 7.7 km/h 82% 0.3 mm 0.00 W/m2 BKN
21:04 4.2 °C 1.4 °C 1019.2 hPa West 13.0 km/h 6.4 km/h 82% 0.0 mm 0.00 W/m2 BKN
21:09 4.2 °C 1.4 °C 1019.2 hPa West 9.3 km/h 5.0 km/h 82% 0.0 mm 0.00 W/m2 BKN
21:14 4.2 °C 1.4 °C 1019.3 hPa West 11.1 km/h 4.5 km/h 82% 0.0 mm 0.00 W/m2 BKN
21:19 4.1 °C 1.3 °C 1019.4 hPa NNW 7.4 km/h 5.6 km/h 82% 0.0 mm 0.00 W/m2 BKN
21:24 3.4 °C 0.7 °C 1019.4 hPa North 11.1 km/h 7.1 km/h 82% 0.0 mm 0.00 W/m2 BKN
21:29 3.4 °C 0.8 °C 1019.6 hPa NNW 9.3 km/h 6.1 km/h 83% 0.0 mm 0.00 W/m2 BKN
21:34 3.6 °C 0.9 °C 1019.6 hPa NW 5.6 km/h 4.2 km/h 83% 0.0 mm 0.00 W/m2 BKN
21:39 3.6 °C 0.9 °C 1019.6 hPa NW 1.9 km/h   83% 0.0 mm 0.00 W/m2 BKN
21:44 3.4 °C 0.8 °C 1019.6 hPa Calm     83% 0.0 mm 0.00 W/m2 BKN
21:49 3.4 °C 1.0 °C 1019.5 hPa Calm     84% 0.0 mm 0.00 W/m2 BKN
21:54 3.4 °C 0.9 °C 1019.5 hPa NW 5.6 km/h 2.6 km/h 84% 0.0 mm 0.00 W/m2 BKN
21:59 3.3 °C 0.8 °C 1019.5 hPa NW 3.7 km/h 2.4 km/h 84% 0.0 mm 0.00 W/m2 BKN
22:04 3.1 °C 0.6 °C 1019.6 hPa NW 5.6 km/h 3.7 km/h 84% 0.0 mm 0.00 W/m2 BKN
22:09 3.1 °C 0.6 °C 1019.5 hPa NW 5.6 km/h 4.3 km/h 84% 0.0 mm 0.00 W/m2 BKN
22:14 3.0 °C 0.6 °C 1019.4 hPa NW 1.9 km/h   84% 0.0 mm 0.00 W/m2 BKN
22:19 2.9 °C 0.5 °C 1019.6 hPa NW 3.2 km/h 1.3 km/h 84% 0.0 mm 0.00 W/m2 BKN
22:24 2.9 °C 0.5 °C 1019.5 hPa NW 5.6 km/h 3.2 km/h 84% 0.0 mm 0.00 W/m2 BKN
22:29 2.8 °C 0.4 °C 1019.6 hPa NW 3.7 km/h 0.5 km/h 84% 0.0 mm 0.00 W/m2 BKN
22:34 2.8 °C 0.5 °C 1019.6 hPa WNW 3.7 km/h 0.8 km/h 85% 0.0 mm 0.00 W/m2 BKN
22:39 2.6 °C 0.3 °C 1019.6 hPa WNW 1.9 km/h 0.5 km/h 85% 0.0 mm 0.00 W/m2 BKN
22:44 2.5 °C 0.2 °C 1019.5 hPa WNW 5.6 km/h 2.6 km/h 85% 0.0 mm 0.00 W/m2 BKN
22:49 2.4 °C 0.2 °C 1019.5 hPa West 6.4 km/h 5.0 km/h 85% 0.0 mm 0.00 W/m2 BKN
22:54 2.6 °C 0.3 °C 1019.4 hPa WSW 9.3 km/h 6.6 km/h 85% 0.0 mm 0.00 W/m2 BKN
22:59 2.6 °C 0.3 °C 1019.5 hPa WSW 5.6 km/h 3.7 km/h 85% 0.0 mm 0.00 W/m2 BKN
23:04 2.6 °C 0.3 °C 1019.5 hPa WSW 7.4 km/h 4.0 km/h 85% 0.0 mm 0.00 W/m2 BKN
23:09 2.7 °C 0.4 °C 1019.6 hPa WSW 3.7 km/h 3.1 km/h 85% 0.0 mm 0.00 W/m2 BKN
23:14 2.7 °C 0.3 °C 1019.7 hPa Calm     84% 0.0 mm 0.00 W/m2 BKN
23:19 2.7 °C 0.4 °C 1019.6 hPa WSW 1.6 km/h 0.6 km/h 85% 0.0 mm 0.00 W/m2 BKN
23:24 2.6 °C 0.3 °C 1019.6 hPa WSW 3.7 km/h 1.9 km/h 85% 0.0 mm 0.00 W/m2 BKN
23:29 2.6 °C 0.3 °C 1019.7 hPa WSW 1.9 km/h   85% 0.0 mm 0.00 W/m2 BKN
23:34 2.5 °C 0.2 °C 1019.6 hPa WSW 3.7 km/h 1.3 km/h 85% 0.0 mm 0.00 W/m2 BKN
23:39 2.4 °C 0.1 °C 1019.6 hPa WSW 1.9 km/h   85% 0.0 mm 0.00 W/m2 BKN
23:44 2.4 °C 0.1 °C 1019.5 hPa WSW 3.7 km/h 1.4 km/h 85% 0.0 mm 0.00 W/m2 BKN
23:49 2.4 °C 0.3 °C 1019.5 hPa Calm     86% 0.0 mm 0.00 W/m2 BKN
23:54 2.4 °C 0.3 °C 1019.5 hPa WSW 5.6 km/h 3.1 km/h 86% 0.0 mm 0.00 W/m2 BKN
23:59 2.4 °C 0.3 °C 1019.4 hPa SW 5.6 km/h 2.9 km/h 86% 0.0 mm 0.00 W/m2 BKN
Juneau County Weather